x

South Bass Island, Oh (sbio1) Weather Station

3:00am - Thu 2nd Jul 2015 All times are CDT. -5 hours from GMT.

  • Wind
    7mph, 10mph gusts
  • Air Temp 64°f
  • Sea Pressure 1013.9mb
  • South Bass Island, Oh
  • South Bass Island, Oh

More Historic Weather Station data

Upgrade to MSW Pro to gain access to the past 30 days of data for over 8000 Wavebouys and Weather Stations around the globe.

Join Pro

Comparision Forecast

View Surf forecast
   
Thu 07/02 3:00am 7 10 mph 1013.9mb 64f
2:00am 8 11 mph 1013.9mb 65f
1:00am 5 9 mph 1014.3mb 65f
12:00am 9 13 mph 1013.8mb 65f
Wed 07/01 11:00pm 6 8 mph 1013.6mb 66f
10:00pm 5 8 mph 1013.6mb 66f
9:00pm 6 8 mph 1013.3mb 67f
8:00pm 14 17 mph 1012.7mb 70f
7:00pm 7 9 mph 1012.1mb 71f
6:00pm 8 9 mph 1011.9mb 72f
5:00pm 9 10 mph 1011.9mb 73f
4:00pm 7 8 mph 1012.2mb 73f
3:00pm 6
mph
1012.1mb 72f
2:00pm 7 8 mph 1012.3mb 71f
1:00pm 9 11 mph 1012.9mb 70f
12:00pm 10 11 mph 1012.8mb 69f
11:00am 13 14 mph 1012.4mb 69f
10:00am 15 16 mph 1011.8mb 68f
9:00am 14 16 mph 1011.6mb 68f
8:00am 16 18 mph 1011.1mb 66f
7:00am 17 21 mph 1010.9mb 65f
6:00am 15 16 mph 1010.3mb 66f
5:00am 17 20 mph 1009.6mb 66f
4:00am 18 21 mph 1009.2mb 66f
3:00am 17 18 mph 1008.9mb 66f
2:00am 18 21 mph 1008.4mb 67f
1:00am 18 21 mph 1008.4mb 68f
12:00am 17 20 mph 1008.6mb 68f
Tue 06/30 11:00pm 15 16 mph 1008.4mb 68f
10:00pm 10 11 mph 1008.6mb 68f
9:00pm 15 17 mph 1007.9mb 69f
8:00pm 6 8 mph 1007.2mb 71f
7:00pm 7 8 mph 1007.5mb 72f
6:00pm 5 7 mph 1006.8mb 72f
5:00pm 10 11 mph 1007.2mb 72f
4:00pm 9 11 mph 1007.7mb 71f
3:00pm 15 16 mph 1007.7mb 70f
2:00pm 3 5 mph 1008mb 71f
1:00pm 5 7 mph 1008.5mb 70f
12:00pm 9 10 mph 1008.9mb 69f
11:00am 9 13 mph 1009.4mb 67f
10:00am 11 14 mph 1009.4mb 66f
9:00am 14 15 mph 1009.8mb 67f
8:00am 13 15 mph 1009.6mb 65f
7:00am 15 16 mph 1009.3mb 64f
6:00am 13 14 mph 1009mb 64f
5:00am 9 10 mph 1008.6mb 64f
4:00am 8 9 mph 1008.3mb 64f
3:00am 7 8 mph 1008.6mb 64f
2:00am 5 6 mph 1008.8mb 64f
1:00am  -  1 mph 1009mb 64f
12:00am 6 9 mph 1009.4mb 64f
Mon 06/29 11:00pm 11 13 mph 1009.8mb 66f
10:00pm 15 16 mph 1010.2mb 66f
9:00pm 18 20 mph 1010mb 66f
8:00pm 16 18 mph 1010.1mb 66f
7:00pm 18 23 mph 1010.2mb 66f
6:00pm 8 14 mph 1010.4mb 69f
5:00pm 13 15 mph 1010.8mb 68f
4:00pm 14 18 mph 1010.9mb 71f
3:00pm 10 13 mph 1011.4mb 69f
2:00pm 15 20 mph 1011.7mb 69f
1:00pm 11 16 mph 1012.3mb 67f
12:00pm 11 14 mph 1012.6mb 67f
11:00am 5 7 mph 1012.5mb 67f
10:00am 8 13 mph 1012.3mb 67f
9:00am 16 17 mph 1012.3mb 70f
8:00am 8 9 mph 1012.2mb 69f
7:00am 8 9 mph 1011.9mb 67f
6:00am 9 11 mph 1011.6mb 67f
5:00am 8 11 mph 1011.2mb 67f
4:00am 7 9 mph 1011mb 67f
3:00am 6 8 mph 1011.5mb 67f
2:00am 3 7 mph 1011.9mb 67f
1:00am 7 9 mph 1012.3mb 68f
12:00am 9 11 mph 1012.3mb 69f
Sun 06/28 11:00pm 6 7 mph 1012.3mb 69f
10:00pm 3 6 mph 1012.3mb 69f
9:00pm 5 7 mph 1011.9mb 69f
8:00pm 5 6 mph 1011.9mb 69f
7:00pm 6 7 mph 1011.9mb 71f
6:00pm 2
mph
1011.6mb 74f
5:00pm 3 5 mph 1011.5mb 72f
4:00pm  -  mph 1011.7mb 71f
3:00pm 8 9 mph 1011.7mb 71f
2:00pm 9 13 mph 1011.5mb 71f
1:00pm 21 24 mph 1011.3mb 69f
12:00pm 17 23 mph 1011.1mb 68f
11:00am 15 17 mph 1010.8mb 65f